Time;durP1;ratioP1;P1;durP2;ratioP2;P2;SDS_P1;SDS_P2;PMS_P1;PMS_P2;Temp;Humidity;BMP_temperature;BMP_pressure;BME280_temperature;BME280_humidity;BME280_pressure;Samples;Min_cycle;Max_cycle;Signal;HPM_P1;HPM_P2
2023/06/08 00:02:19;;;;;;;17.60;7.53;;;19.10;99.90;;;;;;7289198;19;20194;-76
2023/06/08 00:04:45;;;;;;;15.77;7.17;;;19.10;99.90;;;;;;7309555;19;20204;-76
2023/06/08 00:07:15;;;;;;;16.03;7.33;;;19.00;99.90;;;;;;7289706;19;20230;-77
2023/06/08 00:09:42;;;;;;;20.40;7.70;;;19.10;99.90;;;;;;7288472;19;20196;-76
2023/06/08 00:12:08;;;;;;;17.77;7.83;;;19.20;99.90;;;;;;7288343;19;20184;-77
2023/06/08 00:14:35;;;;;;;19.17;7.50;;;19.10;99.90;;;;;;7287935;19;20652;-76
2023/06/08 00:17:04;;;;;;;16.50;7.80;;;18.90;99.90;;;;;;7286548;19;20541;-76
2023/06/08 00:19:36;;;;;;;18.33;7.67;;;18.80;99.90;;;;;;7287604;19;20181;-76
2023/06/08 00:22:07;;;;;;;15.27;7.30;;;18.70;99.90;;;;;;7287970;19;20195;-76
2023/06/08 00:24:36;;;;;;;17.87;8.33;;;18.70;99.90;;;;;;7285508;19;21542;-76
2023/06/08 00:27:06;;;;;;;16.07;8.23;;;18.70;99.90;;;;;;7287414;19;20665;-76
2023/06/08 00:29:33;;;;;;;20.10;8.10;;;18.70;99.90;;;;;;7285892;19;20536;-76
2023/06/08 00:31:59;;;;;;;16.50;8.43;;;18.70;99.90;;;;;;7287616;19;20192;-76
2023/06/08 00:34:27;;;;;;;19.70;8.57;;;18.60;99.90;;;;;;7286536;19;20218;-76
2023/06/08 00:36:55;;;;;;;17.77;8.37;;;18.70;99.90;;;;;;7285336;19;20206;-77
2023/06/08 00:39:21;;;;;;;18.90;8.50;;;18.60;99.90;;;;;;7286928;19;20229;-76
2023/06/08 00:41:47;;;;;;;18.37;8.40;;;18.50;99.90;;;;;;7302790;19;20192;-75
2023/06/08 00:44:13;;;;;;;18.30;8.50;;;18.60;99.90;;;;;;7300802;19;20195;-76
2023/06/08 00:46:39;;;;;;;17.93;8.40;;;18.60;99.90;;;;;;7286785;19;20299;-76
2023/06/08 00:49:08;;;;;;;19.63;8.57;;;18.60;99.90;;;;;;7286280;19;20570;-76
2023/06/08 00:51:40;;;;;;;20.43;9.27;;;18.40;99.90;;;;;;7286463;19;20673;-76
2023/06/08 00:54:08;;;;;;;19.40;8.47;;;18.40;99.90;;;;;;7285881;19;20207;-76
2023/06/08 00:56:36;;;;;;;20.60;8.60;;;18.40;99.90;;;;;;7286562;19;20200;-76
2023/06/08 00:59:02;;;;;;;18.27;9.23;;;18.40;99.90;;;;;;7286166;19;20202;-77
2023/06/08 01:01:32;;;;;;;19.60;9.50;;;18.40;99.90;;;;;;7285955;19;20678;-76
2023/06/08 01:04:07;;;;;;;22.83;9.30;;;18.30;99.90;;;;;;7285893;19;20215;-76
2023/06/08 01:06:35;;;;;;;20.13;9.20;;;18.30;99.90;;;;;;7285093;19;20192;-76
2023/06/08 01:09:27;;;;;;;21.30;9.47;;;18.20;99.90;;;;;;7285935;19;20538;-76
2023/06/08 01:12:00;;;;;;;19.77;8.87;;;18.30;99.90;;;;;;7264609;19;20822;-76
2023/06/08 01:14:30;;;;;;;23.20;9.40;;;18.30;99.90;;;;;;7286572;19;20195;-76
2023/06/08 01:17:00;;;;;;;21.00;9.40;;;18.20;99.90;;;;;;7285158;19;20195;-76
2023/06/08 01:19:52;;;;;;;23.10;9.50;;;18.20;99.90;;;;;;7283061;19;20519;-76
2023/06/08 01:22:22;;;;;;;20.03;9.70;;;18.10;99.90;;;;;;7282602;19;20659;-75
2023/06/08 01:24:52;;;;;;;19.97;9.23;;;18.10;99.90;;;;;;7307905;19;20202;-76
2023/06/08 01:27:21;;;;;;;21.90;9.53;;;18.20;99.90;;;;;;7286155;19;20188;-76
2023/06/08 01:29:47;;;;;;;18.37;9.17;;;17.90;99.90;;;;;;7285415;19;20282;-76
2023/06/08 01:32:14;;;;;;;21.73;9.30;;;17.90;99.90;;;;;;7285235;19;20191;-76
2023/06/08 01:34:42;;;;;;;20.10;8.53;;;17.80;99.90;;;;;;7286440;19;20215;-76
2023/06/08 01:37:26;;;;;;;20.60;9.60;;;17.80;99.90;;;;;;7285193;19;20227;-76
2023/06/08 01:40:09;;;;;;;16.63;9.13;;;17.70;99.90;;;;;;7262488;19;20201;-77
2023/06/08 01:42:36;;;;;;;18.57;8.87;;;17.50;99.90;;;;;;7286044;19;20213;-79
2023/06/08 01:45:36;;;;;;;18.83;9.60;;;17.50;99.90;;;;;;7285512;19;20181;-76
2023/06/08 01:48:04;;;;;;;23.80;9.40;;;17.50;99.90;;;;;;7181441;19;2004693;-77
2023/06/08 01:50:32;;;;;;;18.47;9.70;;;17.50;99.90;;;;;;7283260;19;20190;-76
2023/06/08 01:52:58;;;;;;;17.33;8.53;;;17.50;99.90;;;;;;7283691;19;20219;-76
2023/06/08 01:55:25;;;;;;;21.80;10.13;;;17.50;99.90;;;;;;7284535;19;20200;-77
2023/06/08 01:57:51;;;;;;;21.37;10.07;;;17.50;99.90;;;;;;7284286;19;20185;-76
2023/06/08 02:00:20;;;;;;;20.97;9.73;;;17.60;99.90;;;;;;7305204;19;20190;-76
2023/06/08 02:02:46;;;;;;;24.00;10.27;;;17.70;99.90;;;;;;7284164;19;20581;-76
2023/06/08 02:05:14;;;;;;;27.20;10.90;;;17.50;99.90;;;;;;7283082;19;20196;-77
2023/06/08 02:07:41;;;;;;;23.57;10.27;;;17.30;99.90;;;;;;7283270;19;20181;-76
2023/06/08 02:10:10;;;;;;;21.00;10.23;;;17.30;99.90;;;;;;7282338;19;20222;-77
2023/06/08 02:12:37;;;;;;;18.87;9.77;;;17.40;99.90;;;;;;7284849;19;20545;-77
2023/06/08 02:15:03;;;;;;;18.53;9.53;;;17.40;99.90;;;;;;7284842;19;20185;-76
2023/06/08 02:17:33;;;;;;;23.47;10.70;;;17.40;99.90;;;;;;7284420;19;20370;-76
2023/06/08 02:20:09;;;;;;;22.57;9.87;;;17.40;99.90;;;;;;7283988;19;20537;-76
2023/06/08 02:22:39;;;;;;;19.47;10.40;;;17.30;99.90;;;;;;7283845;19;20201;-77
2023/06/08 02:25:07;;;;;;;19.43;9.83;;;17.20;99.90;;;;;;7284038;19;20200;-77
2023/06/08 02:27:36;;;;;;;22.57;10.00;;;17.10;99.90;;;;;;7283712;19;20800;-76
2023/06/08 02:30:05;;;;;;;24.30;10.33;;;17.10;99.90;;;;;;7282571;19;20698;-76
2023/06/08 02:32:32;;;;;;;21.00;10.07;;;17.00;99.90;;;;;;7284218;19;20280;-77
2023/06/08 02:35:02;;;;;;;24.90;10.20;;;17.00;99.90;;;;;;7283608;19;20203;-76
2023/06/08 02:37:30;;;;;;;20.27;9.63;;;17.00;99.90;;;;;;7283408;19;20207;-76
2023/06/08 02:39:57;;;;;;;21.93;10.37;;;17.00;99.90;;;;;;7282444;19;20193;-76
2023/06/08 02:42:22;;;;;;;22.73;10.47;;;17.00;99.90;;;;;;7283828;19;20188;-76
2023/06/08 02:44:48;;;;;;;19.60;9.77;;;17.20;99.90;;;;;;7305125;19;20214;-77
2023/06/08 02:47:16;;;;;;;19.33;10.20;;;17.20;99.90;;;;;;7283306;19;20641;-76
2023/06/08 02:49:42;;;;;;;21.80;10.17;;;17.30;99.90;;;;;;7282902;19;20633;-77
2023/06/08 02:52:08;;;;;;;22.63;9.93;;;17.30;99.90;;;;;;7282719;19;21449;-77
2023/06/08 02:54:34;;;;;;;22.13;10.70;;;17.40;99.90;;;;;;7282359;19;20558;-76
2023/06/08 02:57:00;;;;;;;22.83;9.70;;;17.40;99.90;;;;;;7281414;19;20648;-76
2023/06/08 02:59:29;;;;;;;22.93;10.27;;;17.20;99.90;;;;;;7280352;19;20181;-76
2023/06/08 03:01:56;;;;;;;26.53;9.70;;;17.10;99.90;;;;;;7281487;19;20195;-76
2023/06/08 03:04:28;;;;;;;21.80;9.67;;;16.90;99.90;;;;;;7281256;19;20205;-76
2023/06/08 03:06:58;;;;;;;21.57;9.80;;;16.70;99.90;;;;;;7281787;19;20242;-76
2023/06/08 03:09:29;;;;;;;19.43;10.07;;;16.70;99.90;;;;;;7280875;19;20196;-76
2023/06/08 03:11:59;;;;;;;22.73;10.07;;;16.80;99.90;;;;;;7282307;19;20223;-77
2023/06/08 03:14:29;;;;;;;23.20;10.60;;;16.80;99.90;;;;;;7281888;19;20260;-76
2023/06/08 03:17:02;;;;;;;20.63;10.43;;;16.90;99.90;;;;;;7282274;19;20194;-76
2023/06/08 03:19:30;;;;;;;23.23;10.43;;;17.00;99.90;;;;;;7280904;19;20538;-76
2023/06/08 03:22:02;;;;;;;20.20;10.07;;;16.80;99.90;;;;;;7281888;19;20187;-76
2023/06/08 03:24:33;;;;;;;21.37;9.80;;;16.70;99.90;;;;;;7282902;19;20205;-76
2023/06/08 03:27:02;;;;;;;21.83;10.20;;;16.90;99.90;;;;;;7280599;19;20260;-76
2023/06/08 03:29:30;;;;;;;24.23;10.43;;;17.00;99.90;;;;;;7281246;19;20227;-76
2023/06/08 03:31:58;;;;;;;20.83;10.57;;;16.80;99.90;;;;;;7282157;19;20553;-76
2023/06/08 03:34:26;;;;;;;18.43;10.17;;;16.80;99.90;;;;;;7280687;19;20184;-77
2023/06/08 03:36:56;;;;;;;28.27;10.60;;;16.80;99.90;;;;;;7281322;19;20205;-75
2023/06/08 03:39:24;;;;;;;25.33;10.83;;;16.70;99.90;;;;;;7282210;19;20640;-76
2023/06/08 03:41:50;;;;;;;19.73;10.13;;;16.70;99.90;;;;;;7303373;19;20206;-76
2023/06/08 03:44:18;;;;;;;24.10;11.27;;;16.80;99.90;;;;;;7283225;19;20193;-77
2023/06/08 03:46:46;;;;;;;21.50;10.70;;;17.00;99.90;;;;;;7280556;19;20656;-76
2023/06/08 03:49:12;;;;;;;19.67;10.43;;;16.80;99.90;;;;;;7280282;19;20206;-76
2023/06/08 03:51:38;;;;;;;23.17;10.90;;;16.90;99.90;;;;;;7281272;19;20550;-76
2023/06/08 03:54:04;;;;;;;20.63;10.53;;;16.80;99.90;;;;;;7280515;19;20201;-76
2023/06/08 03:56:30;;;;;;;22.63;10.20;;;16.80;99.90;;;;;;7279683;19;20252;-76
2023/06/08 03:58:58;;;;;;;20.20;10.97;;;16.70;99.90;;;;;;7280118;19;20189;-76
2023/06/08 04:01:24;;;;;;;24.93;11.30;;;16.80;99.90;;;;;;7281437;19;20256;-75
2023/06/08 04:03:52;;;;;;;22.27;11.07;;;16.80;99.90;;;;;;7299524;19;20546;-75
2023/06/08 04:06:18;;;;;;;21.73;10.43;;;16.80;99.90;;;;;;7291217;19;20188;-76
2023/06/08 04:08:44;;;;;;;23.90;10.87;;;16.70;99.90;;;;;;7281265;19;20218;-76
2023/06/08 04:11:14;;;;;;;24.53;11.67;;;16.70;99.90;;;;;;7280026;19;20678;-76
2023/06/08 04:13:40;;;;;;;25.17;11.47;;;16.70;99.90;;;;;;7286798;19;20195;-76
2023/06/08 04:16:09;;;;;;;25.60;11.17;;;16.70;99.90;;;;;;7287611;19;20185;-76
2023/06/08 04:18:39;;;;;;;23.07;11.67;;;16.80;99.90;;;;;;7287060;19;20192;-76
2023/06/08 04:21:07;;;;;;;23.77;11.27;;;16.80;99.90;;;;;;7286842;19;20192;-76
2023/06/08 04:23:34;;;;;;;20.27;10.83;;;17.00;99.90;;;;;;7288077;19;20210;-76
2023/06/08 04:26:04;;;;;;;23.50;10.83;;;16.90;99.90;;;;;;7284968;19;20664;-76
2023/06/08 04:28:30;;;;;;;26.70;10.90;;;16.80;99.90;;;;;;7287526;19;20187;-75
2023/06/08 04:30:58;;;;;;;19.27;11.03;;;17.00;99.90;;;;;;7287356;19;20263;-76
2023/06/08 04:33:25;;;;;;;22.47;10.73;;;17.20;99.90;;;;;;7285117;19;20311;-75
2023/06/08 04:35:51;;;;;;;25.63;11.07;;;17.50;99.90;;;;;;7310237;19;20201;-77
2023/06/08 04:38:17;;;;;;;21.57;10.77;;;18.00;99.90;;;;;;7286812;19;20620;-76
2023/06/08 04:40:53;;;;;;;22.10;10.87;;;18.50;99.90;;;;;;7287275;19;20588;-76
2023/06/08 04:43:31;;;;;;;22.13;10.23;;;19.00;99.90;;;;;;7281482;19;20213;-76
2023/06/08 04:45:59;;;;;;;22.43;11.33;;;19.30;99.90;;;;;;7287960;19;20553;-76
2023/06/08 04:48:27;;;;;;;24.90;10.67;;;19.50;99.90;;;;;;7283262;19;20189;-76
2023/06/08 04:51:01;;;;;;;29.87;11.50;;;19.50;99.90;;;;;;7305434;19;20570;-75
2023/06/08 04:53:33;;;;;;;21.13;10.77;;;19.30;99.90;;;;;;7286651;19;20268;-78
2023/06/08 04:56:02;;;;;;;24.00;11.10;;;19.40;99.90;;;;;;7287234;19;20201;-76
2023/06/08 04:58:29;;;;;;;20.30;10.63;;;19.40;99.90;;;;;;7285464;19;20548;-76
2023/06/08 05:00:56;;;;;;;22.40;10.87;;;19.60;99.90;;;;;;7285966;19;20189;-76
2023/06/08 05:03:23;;;;;;;19.43;10.30;;;19.60;99.90;;;;;;7309935;19;20712;-77
2023/06/08 05:05:50;;;;;;;21.10;10.40;;;19.80;99.90;;;;;;7288009;19;20681;-77
2023/06/08 05:08:15;;;;;;;21.17;11.23;;;20.10;99.90;;;;;;7286153;19;20196;-76
2023/06/08 05:10:41;;;;;;;19.53;10.80;;;20.10;99.90;;;;;;7285034;19;20184;-76
2023/06/08 05:13:07;;;;;;;19.87;10.43;;;20.00;99.90;;;;;;7286380;19;20196;-76
2023/06/08 05:15:33;;;;;;;21.50;10.40;;;20.10;99.90;;;;;;7286348;19;20190;-76
2023/06/08 05:17:59;;;;;;;22.57;10.97;;;20.50;99.90;;;;;;7285146;19;20192;-76
2023/06/08 05:20:28;;;;;;;19.23;9.70;;;21.00;99.90;;;;;;7286692;19;20544;-76
2023/06/08 05:22:54;;;;;;;21.33;10.93;;;21.30;99.90;;;;;;7300858;19;20184;-75
2023/06/08 05:25:19;;;;;;;20.00;10.10;;;21.30;99.90;;;;;;7299857;19;20212;-76
2023/06/08 05:27:45;;;;;;;18.73;11.40;;;21.60;99.90;;;;;;7285010;19;20828;-76
2023/06/08 05:30:11;;;;;;;22.77;11.20;;;21.40;99.90;;;;;;7285350;19;20197;-77
2023/06/08 05:32:37;;;;;;;19.13;10.60;;;21.70;99.90;;;;;;7286044;19;20192;-77
2023/06/08 05:35:04;;;;;;;26.30;11.23;;;21.70;99.90;;;;;;7285702;19;20200;-76
2023/06/08 05:37:30;;;;;;;33.80;12.10;;;22.00;99.90;;;;;;7284875;19;20771;-77
2023/06/08 05:39:56;;;;;;;23.70;10.90;;;22.70;99.90;;;;;;7287869;19;20203;-76
2023/06/08 05:42:22;;;;;;;19.30;10.50;;;22.70;99.90;;;;;;7306464;19;20188;-78
2023/06/08 05:44:49;;;;;;;25.07;10.90;;;22.60;99.90;;;;;;7286943;19;20671;-83
2023/06/08 05:47:15;;;;;;;23.10;11.30;;;22.90;99.90;;;;;;7287980;19;20253;-83
2023/06/08 05:49:41;;;;;;;19.03;10.80;;;22.50;99.90;;;;;;7284823;19;20200;-82
2023/06/08 05:52:06;;;;;;;19.27;10.93;;;22.60;99.90;;;;;;7286851;19;20210;-82
2023/06/08 05:54:32;;;;;;;23.00;11.20;;;22.60;99.90;;;;;;7287382;19;20221;-83
2023/06/08 05:56:58;;;;;;;22.10;11.10;;;23.00;99.90;;;;;;7286150;19;20199;-83
2023/06/08 05:59:24;;;;;;;20.93;11.00;;;23.40;99.90;;;;;;7308946;19;20193;-83
2023/06/08 06:01:50;;;;;;;22.97;10.97;;;23.50;99.90;;;;;;7286136;19;20189;-83
2023/06/08 06:04:16;;;;;;;19.53;10.57;;;23.60;99.90;;;;;;7287735;19;20652;-82
2023/06/08 06:06:42;;;;;;;22.17;10.87;;;24.00;99.90;;;;;;7285745;19;20203;-83
2023/06/08 06:09:11;;;;;;;27.07;11.23;;;24.40;99.90;;;;;;7285822;19;20201;-83
2023/06/08 06:11:37;;;;;;;23.20;10.90;;;24.30;99.90;;;;;;7285149;19;20193;-83
2023/06/08 06:14:02;;;;;;;19.40;9.83;;;24.10;99.90;;;;;;7283992;19;20185;-83
2023/06/08 06:16:28;;;;;;;20.83;10.87;;;24.10;99.90;;;;;;7290313;19;21193;-83
2023/06/08 06:18:54;;;;;;;20.73;11.13;;;23.70;99.90;;;;;;7309263;19;20528;-83
2023/06/08 06:21:19;;;;;;;21.90;12.17;;;23.30;99.90;;;;;;7285591;19;20200;-83
2023/06/08 06:23:46;;;;;;;22.30;10.93;;;23.00;99.90;;;;;;7285608;19;20242;-83
2023/06/08 06:26:11;;;;;;;21.40;10.87;;;23.40;99.90;;;;;;7285280;19;20214;-83
2023/06/08 06:28:38;;;;;;;23.60;11.37;;;24.10;99.90;;;;;;7286223;19;20196;-83
2023/06/08 06:31:05;;;;;;;20.50;11.47;;;23.90;99.90;;;;;;7286392;19;20558;-83
2023/06/08 06:33:30;;;;;;;24.03;11.87;;;24.20;99.90;;;;;;7284510;19;20192;-83
2023/06/08 06:35:56;;;;;;;21.57;11.50;;;24.40;99.90;;;;;;7290281;19;20204;-82
2023/06/08 06:38:22;;;;;;;22.63;11.37;;;24.30;99.90;;;;;;7306332;19;20188;-83
2023/06/08 06:40:50;;;;;;;23.93;12.00;;;24.40;99.90;;;;;;7285203;19;20652;-83
2023/06/08 06:43:16;;;;;;;22.83;11.70;;;24.50;99.90;;;;;;7285635;19;20195;-83
2023/06/08 06:45:51;;;;;;;22.23;11.10;;;24.70;99.90;;;;;;7286100;19;20258;-83
2023/06/08 06:48:20;;;;;;;20.17;11.07;;;24.70;99.90;;;;;;7284182;19;20193;-82
2023/06/08 06:50:47;;;;;;;21.20;11.17;;;24.50;99.90;;;;;;7285120;19;20949;-83
2023/06/08 06:53:13;;;;;;;23.15;12.55;;;24.50;99.90;;;;;;7283931;19;20653;-82
2023/06/08 06:55:39;;;;;;;21.48;11.02;;;24.60;99.90;;;;;;7284107;19;20189;-83
2023/06/08 06:58:05;;;;;;;22.40;11.20;;;25.00;99.90;;;;;;7283871;19;20653;-83
2023/06/08 07:00:37;;;;;;;20.92;11.45;;;25.60;99.90;;;;;;7284723;19;20206;-83
2023/06/08 07:03:04;;;;;;;24.75;11.32;;;25.80;99.90;;;;;;7283296;19;20194;-83
2023/06/08 07:05:30;;;;;;;19.98;10.98;;;25.80;99.90;;;;;;7284800;19;20193;-83
2023/06/08 07:07:56;;;;;;;21.13;11.55;;;25.90;99.90;;;;;;7294539;19;20283;-82
2023/06/08 07:10:22;;;;;;;21.05;11.23;;;26.10;99.90;;;;;;7304179;19;20193;-83
2023/06/08 07:12:48;;;;;;;24.27;12.63;;;26.30;99.90;;;;;;7284218;19;20304;-83
2023/06/08 07:15:13;;;;;;;21.42;12.05;;;26.40;99.90;;;;;;7283384;19;20193;-83
2023/06/08 07:17:39;;;;;;;20.88;11.85;;;26.20;99.90;;;;;;7283898;19;20192;-83
2023/06/08 07:20:06;;;;;;;19.50;11.45;;;26.60;99.90;;;;;;7283802;19;20260;-82
2023/06/08 07:22:31;;;;;;;22.52;11.43;;;26.70;99.90;;;;;;7284153;19;20188;-83
2023/06/08 07:24:58;;;;;;;23.98;11.57;;;26.60;99.90;;;;;;7286851;19;20230;-82
2023/06/08 07:27:23;;;;;;;21.45;11.85;;;26.50;99.90;;;;;;7304714;19;20193;-83
2023/06/08 07:29:49;;;;;;;20.52;11.95;;;27.00;99.90;;;;;;7283600;19;20198;-83
2023/06/08 07:32:15;;;;;;;21.55;11.27;;;27.00;99.90;;;;;;7283537;19;21068;-83
2023/06/08 07:34:41;;;;;;;24.23;12.13;;;27.50;99.90;;;;;;7282639;19;20545;-83
2023/06/08 07:37:07;;;;;;;22.10;11.82;;;27.20;99.90;;;;;;7283460;19;20199;-83
2023/06/08 07:39:32;;;;;;;20.58;11.73;;;28.00;99.90;;;;;;7283111;19;20585;-83
2023/06/08 07:41:58;;;;;;;20.27;11.63;;;28.00;99.90;;;;;;7285384;19;20180;-83
2023/06/08 07:44:23;;;;;;;21.98;12.35;;;28.40;99.90;;;;;;7306399;19;20579;-83
2023/06/08 07:46:49;;;;;;;23.27;12.15;;;28.10;99.90;;;;;;7283535;19;20181;-83
2023/06/08 07:49:15;;;;;;;20.48;12.27;;;28.40;99.90;;;;;;7291620;19;20269;-81
2023/06/08 07:51:41;;;;;;;21.20;12.23;;;28.40;99.90;;;;;;7289702;19;20189;-81
2023/06/08 07:54:07;;;;;;;23.48;11.60;;;28.30;99.90;;;;;;7289857;19;20196;-81
2023/06/08 07:56:32;;;;;;;19.20;11.55;;;28.70;99.90;;;;;;7289145;19;20692;-83
2023/06/08 07:58:58;;;;;;;20.35;12.30;;;29.40;99.90;;;;;;7289632;19;20630;-83
2023/06/08 08:01:24;;;;;;;22.35;12.27;;;29.50;99.90;;;;;;7312025;19;20188;-83
2023/06/08 08:03:51;;;;;;;24.10;12.70;;;29.40;99.90;;;;;;7289728;19;20260;-83
2023/06/08 08:06:17;;;;;;;21.42;12.20;;;29.60;99.90;;;;;;7288342;19;20178;-83
2023/06/08 08:08:43;;;;;;;20.80;11.43;;;29.60;99.90;;;;;;7288874;19;20208;-81
2023/06/08 08:11:09;;;;;;;20.63;12.77;;;30.20;99.90;;;;;;7288551;19;20185;-81
2023/06/08 08:13:35;;;;;;;19.42;11.85;;;30.50;99.90;;;;;;7290116;19;20193;-81
2023/06/08 08:16:00;;;;;;;22.17;12.52;;;30.70;99.90;;;;;;7290330;19;20199;-81
2023/06/08 08:18:26;;;;;;;22.30;12.68;;;30.60;99.90;;;;;;7299125;19;20188;-83
2023/06/08 08:20:52;;;;;;;21.55;12.80;;;30.50;99.90;;;;;;7307494;19;20205;-81
2023/06/08 08:23:18;;;;;;;24.02;13.23;;;32.00;99.90;;;;;;7287458;19;20185;-81
2023/06/08 08:25:43;;;;;;;20.85;11.90;;;32.30;99.90;;;;;;7288226;19;20206;-81
2023/06/08 08:28:09;;;;;;;20.55;11.77;;;32.60;99.90;;;;;;7288712;19;20526;-81
2023/06/08 08:30:35;;;;;;;22.63;13.00;;;32.40;99.10;;;;;;7288368;19;20195;-81
2023/06/08 08:33:01;;;;;;;21.52;12.48;;;32.20;98.40;;;;;;7287722;19;20297;-81
2023/06/08 08:35:29;;;;;;;23.02;12.50;;;33.00;97.70;;;;;;7295618;19;20183;-81
2023/06/08 08:37:56;;;;;;;23.13;12.95;;;32.70;96.80;;;;;;7310145;19;20210;-81
2023/06/08 08:40:23;;;;;;;21.17;12.00;;;32.30;96.60;;;;;;7288142;19;20280;-81
2023/06/08 08:43:02;;;;;;;24.48;13.10;;;32.60;96.10;;;;;;7288067;19;20559;-81
2023/06/08 08:45:31;;;;;;;24.13;12.77;;;32.60;95.70;;;;;;7267197;19;20196;-81
2023/06/08 08:48:01;;;;;;;20.75;13.73;;;34.20;93.40;;;;;;7296124;19;20195;-81
2023/06/08 08:50:34;;;;;;;22.83;11.93;;;32.80;93.10;;;;;;7298244;19;20196;-81
2023/06/08 08:53:00;;;;;;;20.02;13.18;;;33.50;94.20;;;;;;7288166;19;20265;-81
2023/06/08 08:55:27;;;;;;;20.40;12.38;;;33.20;92.60;;;;;;7305599;19;20196;-83
2023/06/08 08:57:58;;;;;;;25.17;13.98;;;33.90;92.30;;;;;;7309115;19;20180;-84
2023/06/08 09:00:24;;;;;;;26.90;14.70;;;33.00;92.40;;;;;;7289112;19;20199;-83
2023/06/08 09:02:51;;;;;;;26.67;14.65;;;32.70;92.80;;;;;;7288279;19;20613;-83
2023/06/08 09:05:17;;;;;;;25.90;13.60;;;31.40;92.80;;;;;;7286925;19;20189;-82
2023/06/08 09:07:43;;;;;;;23.75;14.27;;;31.60;93.70;;;;;;7286587;19;20193;-82
2023/06/08 09:10:13;;;;;;;23.63;13.27;;;32.20;94.80;;;;;;7288180;19;20199;-83
2023/06/08 09:12:41;;;;;;;23.88;14.70;;;32.90;93.70;;;;;;7287337;19;20534;-82
2023/06/08 09:15:12;;;;;;;20.70;13.65;;;32.60;93.10;;;;;;7288384;19;20210;-81
2023/06/08 09:17:38;;;;;;;28.58;14.13;;;32.70;91.90;;;;;;7293934;19;20547;-81
2023/06/08 09:20:11;;;;;;;23.05;15.57;;;32.00;92.60;;;;;;7289149;19;20192;-82
2023/06/08 09:22:41;;;;;;;27.15;14.90;;;31.30;93.40;;;;;;7287360;19;20211;-82
2023/06/08 09:25:07;;;;;;;26.85;15.05;;;30.30;94.20;;;;;;7288457;19;20197;-81
2023/06/08 09:27:33;;;;;;;20.73;13.32;;;30.50;95.00;;;;;;7285230;19;20283;-82
2023/06/08 09:30:02;;;;;;;24.95;14.07;;;30.80;95.60;;;;;;7285338;19;20264;-82
2023/06/08 09:32:32;;;;;;;23.15;14.05;;;30.60;94.60;;;;;;7287176;19;20185;-81
2023/06/08 09:35:01;;;;;;;26.15;14.27;;;31.20;94.40;;;;;;7286319;19;20253;-81
2023/06/08 09:37:32;;;;;;;28.45;14.80;;;32.10;93.70;;;;;;7292797;19;20197;-81
2023/06/08 09:40:00;;;;;;;22.20;14.18;;;32.50;92.60;;;;;;7285703;19;20220;-81
2023/06/08 09:42:44;;;;;;;26.02;14.68;;;32.80;93.10;;;;;;7307634;19;20221;-82
2023/06/08 09:45:15;;;;;;;24.83;13.00;;;32.80;91.70;;;;;;7185685;19;2004490;-82
2023/06/08 09:47:42;;;;;;;24.02;15.05;;;32.50;92.10;;;;;;7286377;19;20229;-82
2023/06/08 09:50:09;;;;;;;24.58;15.00;;;32.30;91.90;;;;;;7286624;19;20252;-82
2023/06/08 09:52:37;;;;;;;21.77;13.80;;;32.40;91.80;;;;;;7285839;19;20638;-82
2023/06/08 09:55:05;;;;;;;22.95;14.70;;;32.30;92.80;;;;;;7285240;19;20187;-82
2023/06/08 09:57:36;;;;;;;25.45;14.13;;;32.20;92.60;;;;;;7286024;19;20732;-82
2023/06/08 10:00:14;;;;;;;23.83;13.88;;;32.50;92.00;;;;;;7285782;19;20194;-82
2023/06/08 10:02:57;;;;;;;24.67;14.43;;;32.70;91.60;;;;;;7286574;19;20605;-82
2023/06/08 10:05:26;;;;;;;27.13;13.93;;;32.70;91.40;;;;;;7286907;19;20265;-82
2023/06/08 10:07:54;;;;;;;24.80;14.68;;;32.20;91.70;;;;;;7284982;19;20184;-82
2023/06/08 10:10:29;;;;;;;24.08;15.05;;;31.80;92.10;;;;;;7280986;19;20215;-81
2023/06/08 10:12:57;;;;;;;25.05;14.27;;;31.80;92.60;;;;;;7283358;19;20252;-81
2023/06/08 10:15:23;;;;;;;23.35;14.60;;;31.70;93.60;;;;;;7284441;19;20192;-82
2023/06/08 10:17:50;;;;;;;25.00;11.70;;;32.30;92.60;;;;;;7285803;19;20182;-82
2023/06/08 10:20:16;;;;;;;24.08;14.38;;;32.60;92.80;;;;;;7285247;19;20188;-82
2023/06/08 10:22:43;;;;;;;19.42;12.88;;;32.80;91.60;;;;;;7285324;19;20661;-81
2023/06/08 10:25:13;;;;;;;25.10;14.50;;;32.70;91.50;;;;;;7286053;19;20533;-81
2023/06/08 10:27:49;;;;;;;23.42;13.48;;;32.80;92.10;;;;;;7284309;19;20184;-82
2023/06/08 10:30:27;;;;;;;22.55;13.10;;;33.20;92.40;;;;;;7285178;19;20256;-82
2023/06/08 10:32:55;;;;;;;24.33;13.75;;;33.20;92.10;;;;;;7286182;19;20184;-82
2023/06/08 10:35:21;;;;;;;21.23;12.35;;;33.10;90.90;;;;;;7284721;19;20188;-82
2023/06/08 10:37:48;;;;;;;24.48;14.00;;;32.80;92.00;;;;;;7285744;19;21071;-82
2023/06/08 10:40:14;;;;;;;25.17;13.10;;;32.40;91.60;;;;;;7285350;19;20249;-82
2023/06/08 10:42:55;;;;;;;26.27;13.63;;;32.70;91.50;;;;;;7284696;19;20197;-82
2023/06/08 10:45:33;;;;;;;23.27;13.63;;;32.60;91.50;;;;;;7285131;19;20195;-81
2023/06/08 10:48:18;;;;;;;21.05;11.85;;;33.10;91.60;;;;;;7265830;19;20694;-81
2023/06/08 10:50:48;;;;;;;22.88;12.82;;;33.90;91.50;;;;;;7286050;19;20201;-82
2023/06/08 10:53:18;;;;;;;18.55;12.02;;;34.80;89.90;;;;;;7284415;19;20196;-82
2023/06/08 10:55:47;;;;;;;20.50;13.00;;;33.60;89.00;;;;;;7285123;19;20185;-82
2023/06/08 10:58:20;;;;;;;21.05;13.15;;;33.00;89.80;;;;;;7282958;19;20192;-82
2023/06/08 11:00:52;;;;;;;21.40;13.77;;;32.60;90.90;;;;;;7283461;19;20264;-81
2023/06/08 11:03:20;;;;;;;18.45;11.45;;;32.40;90.20;;;;;;7283761;19;20560;-82
2023/06/08 11:05:53;;;;;;;18.58;11.57;;;32.60;92.20;;;;;;7283358;19;20256;-82
2023/06/08 11:08:19;;;;;;;18.23;11.40;;;32.50;91.00;;;;;;7283939;19;20182;-82
2023/06/08 11:10:52;;;;;;;21.95;11.85;;;32.60;90.60;;;;;;7282485;19;20677;-83
2023/06/08 11:13:18;;;;;;;21.92;13.40;;;32.20;90.30;;;;;;7282539;19;20202;-83
2023/06/08 11:15:46;;;;;;;19.73;10.95;;;32.00;90.20;;;;;;7281651;19;20256;-83
2023/06/08 11:18:12;;;;;;;20.73;10.10;;;31.60;91.30;;;;;;7281558;19;20189;-82
2023/06/08 11:20:41;;;;;;;16.27;10.65;;;32.30;92.40;;;;;;7282535;19;20722;-82
2023/06/08 11:23:10;;;;;;;17.15;10.57;;;32.50;90.50;;;;;;7289234;19;20204;-82
2023/06/08 11:25:36;;;;;;;20.25;12.20;;;32.70;90.80;;;;;;7289624;19;20191;-81
2023/06/08 11:28:07;;;;;;;14.25;9.38;;;32.80;89.20;;;;;;7288895;19;20199;-82
2023/06/08 11:30:35;;;;;;;19.88;11.50;;;33.20;90.70;;;;;;7290692;19;20192;-81
2023/06/08 11:33:07;;;;;;;18.98;11.38;;;32.80;90.10;;;;;;7290914;19;20188;-81
2023/06/08 11:35:33;;;;;;;17.98;11.02;;;32.70;90.70;;;;;;7289015;19;20219;-82
2023/06/08 11:38:00;;;;;;;14.88;9.32;;;33.20;90.10;;;;;;7303214;19;20188;-82
2023/06/08 11:40:27;;;;;;;16.80;8.77;;;33.10;88.20;;;;;;7312387;19;20652;-82
2023/06/08 11:42:53;;;;;;;15.05;8.48;;;32.90;89.60;;;;;;7289065;19;20188;-82
2023/06/08 11:45:19;;;;;;;18.73;9.63;;;32.60;87.30;;;;;;7289840;19;20275;-82
2023/06/08 11:47:45;;;;;;;15.13;10.15;;;32.50;88.30;;;;;;7289021;19;20193;-82
2023/06/08 11:50:13;;;;;;;15.60;9.80;;;32.60;88.00;;;;;;7287062;19;20205;-82
2023/06/08 11:52:42;;;;;;;14.63;7.93;;;32.70;88.10;;;;;;7288329;19;20938;-81
2023/06/08 11:55:13;;;;;;;13.50;7.35;;;33.30;87.50;;;;;;7288717;19;20184;-82
2023/06/08 11:57:43;;;;;;;17.85;8.20;;;33.60;86.20;;;;;;7288903;19;20193;-82
2023/06/08 12:00:18;;;;;;;14.32;8.00;;;33.50;86.60;;;;;;7289607;19;20197;-82
2023/06/08 12:02:48;;;;;;;13.95;7.90;;;33.50;87.10;;;;;;7288942;19;20199;-81
2023/06/08 12:05:28;;;;;;;15.57;7.50;;;32.60;84.20;;;;;;7289241;19;20642;-82
2023/06/08 12:08:15;;;;;;;13.18;7.30;;;31.50;86.90;;;;;;7288400;19;20248;-83
2023/06/08 12:10:43;;;;;;;15.25;7.97;;;30.30;90.10;;;;;;7186133;19;2006500;-83
2023/06/08 12:13:13;;;;;;;12.82;7.38;;;29.50;90.70;;;;;;7288425;19;20227;-83
2023/06/08 12:15:43;;;;;;;11.85;6.63;;;29.10;92.50;;;;;;7288114;19;20291;-83
2023/06/08 12:18:12;;;;;;;16.38;7.57;;;29.00;93.00;;;;;;7288480;19;20199;-83
2023/06/08 12:20:40;;;;;;;15.52;6.95;;;28.90;92.20;;;;;;7287795;19;20193;-84
2023/06/08 12:23:06;;;;;;;11.65;7.20;;;28.90;92.80;;;;;;7287692;19;20200;-83
2023/06/08 12:25:32;;;;;;;12.85;7.32;;;28.80;93.20;;;;;;7289861;19;20181;-83
2023/06/08 12:27:58;;;;;;;13.45;6.65;;;28.70;92.60;;;;;;7310355;19;20302;-83
2023/06/08 12:30:25;;;;;;;10.98;6.15;;;28.70;93.70;;;;;;7287181;19;20202;-83
2023/06/08 12:32:52;;;;;;;12.90;7.80;;;29.00;94.00;;;;;;7286705;19;20201;-83
2023/06/08 12:35:18;;;;;;;14.25;7.55;;;28.90;92.80;;;;;;7288195;19;20189;-83
2023/06/08 12:37:48;;;;;;;14.23;7.35;;;28.80;93.10;;;;;;7288965;19;20195;-83